Terminal Aerodrome Forecast
Issued by NWS

Home | Current Version | Previous Version | Text Only | Print | Product List | Glossary On
Versions: 1 2 3 4 5 6 7 8 9 10 11 12 13 14 15 16 17 18 19 20 21 22 23 24 25 26 27 28 29 30 31 32 33 34 35 36 37 38 39 40 41 42 43 44 45 46 47 48 49 50
000
FTUS43 KLOT 282300
TAFGYY
TAF
KGYY 282340Z 2900/2924 04010KT P6SM VCSH SCT070 BKN110 OVC150
     FM290300 07007KT P6SM VCSH SCT050 BKN080
     FM290900 15007KT P6SM BKN050 OVC080
     FM291200 17008KT P6SM VCSH BKN050 OVC080
     FM291500 19008KT P6SM SCT050 BKN100
     FM291700 19013G20KT P6SM SCT060 BKN200 PROB30 2918/2922 5SM
      TSRA BR BKN050CB=

USA.gov is the U.S. government's official web portal to all federal, state and local government web resources and services.